createdAt,value
2023-03-12T00:01:01.848Z,96593.41
2023-03-12T00:03:30.426Z,96601.47
2023-03-12T00:06:06.094Z,96595.50
2023-03-12T00:08:38.654Z,96594.25
2023-03-12T00:11:08.696Z,96598.31
2023-03-12T00:13:39.065Z,96602.06
2023-03-12T00:16:10.100Z,96602.78
2023-03-12T00:18:39.732Z,96600.69
2023-03-12T00:21:08.542Z,96602.16
2023-03-12T00:23:37.358Z,96604.06
2023-03-12T00:26:08.341Z,96602.25
2023-03-12T00:28:38.150Z,96608.44
2023-03-12T00:31:16.208Z,96606.16
2023-03-12T00:33:45.126Z,96607.63
2023-03-12T00:36:14.421Z,96610.00
2023-03-12T00:38:42.966Z,96607.63
2023-03-12T00:41:11.324Z,96604.72
2023-03-12T00:43:41.357Z,96606.31
2023-03-12T00:46:09.916Z,96609.34
2023-03-12T00:48:38.100Z,96610.41
2023-03-12T00:51:06.697Z,96609.25
2023-03-12T00:53:34.931Z,96609.16
2023-03-12T00:56:03.038Z,96607.81
2023-03-12T00:58:32.569Z,96606.88
2023-03-12T01:01:02.367Z,96615.56
2023-03-12T01:03:30.591Z,96615.94
2023-03-12T01:05:59.622Z,96613.28
2023-03-12T01:08:28.405Z,96610.63
2023-03-12T01:10:57.015Z,96610.72
2023-03-12T01:13:25.361Z,96608.97
2023-03-12T01:15:53.794Z,96608.50
2023-03-12T01:18:23.456Z,96609.34
2023-03-12T01:20:51.611Z,96606.78
2023-03-12T01:23:20.057Z,96609.44
2023-03-12T01:25:49.513Z,96607.16
2023-03-12T01:28:17.815Z,96606.00
2023-03-12T01:30:45.992Z,96603.41
2023-03-12T01:33:14.590Z,96607.63
2023-03-12T01:35:44.538Z,96605.91
2023-03-12T01:38:15.442Z,96607.63
2023-03-12T01:40:45.385Z,96606.00
2023-03-12T01:43:26.705Z,96608.63
2023-03-12T01:46:22.911Z,96608.63
2023-03-12T01:48:56.532Z,96614.75
2023-03-12T01:51:30.943Z,96618.50
2023-03-12T01:54:03.672Z,96623.84
2023-03-12T01:56:36.930Z,96627.59
2023-03-12T01:59:09.710Z,96624.09
2023-03-12T02:01:38.996Z,96629.13
2023-03-12T02:04:08.569Z,96623.69
2023-03-12T02:06:45.381Z,96624.03
2023-03-12T02:09:15.024Z,96626.53
2023-03-12T02:11:43.047Z,96632.44
2023-03-12T02:14:11.372Z,96636.72
2023-03-12T02:16:39.875Z,96631.78
2023-03-12T02:19:17.059Z,96631.47
2023-03-12T02:21:47.492Z,96636.47
2023-03-12T02:24:24.227Z,96644.41
2023-03-12T02:26:54.075Z,96647.31
2023-03-12T02:29:22.508Z,96645.88
2023-03-12T02:31:55.386Z,96650.16
2023-03-12T02:34:23.753Z,96638.25
2023-03-12T02:36:51.956Z,96650.25
2023-03-12T02:39:20.825Z,96645.22
2023-03-12T02:41:54.493Z,96645.16
2023-03-12T02:44:25.494Z,96646.78
2023-03-12T02:46:55.753Z,96649.97
2023-03-12T02:49:27.032Z,96654.06
2023-03-12T02:51:55.839Z,96648.19
2023-03-12T02:54:25.220Z,96650.47
2023-03-12T02:56:55.494Z,96650.53
2023-03-12T02:59:26.883Z,96655.50
2023-03-12T03:02:00.079Z,96653.72
2023-03-12T03:04:29.964Z,96660.72
2023-03-12T03:06:58.254Z,96661.81
2023-03-12T03:09:26.865Z,96663.72
2023-03-12T03:11:56.536Z,96660.03
2023-03-12T03:14:26.564Z,96667.00
2023-03-12T03:16:54.885Z,96664.31
2023-03-12T03:19:24.883Z,96666.78
2023-03-12T03:21:53.283Z,96669.41
2023-03-12T03:24:21.680Z,96672.00
2023-03-12T03:26:49.965Z,96672.81
2023-03-12T03:29:19.592Z,96681.38
2023-03-12T03:31:48.228Z,96672.66
2023-03-12T03:34:16.782Z,96674.53
2023-03-12T03:36:45.384Z,96679.09
2023-03-12T03:39:17.002Z,96688.47
2023-03-12T03:41:46.612Z,96693.56
2023-03-12T03:44:17.807Z,96694.50
2023-03-12T03:46:48.220Z,96695.34
2023-03-12T03:49:16.838Z,96698.66
2023-03-12T03:51:45.220Z,96693.19
2023-03-12T03:54:17.418Z,96692.19
2023-03-12T03:56:47.856Z,96693.19
2023-03-12T03:59:16.672Z,96696.81
2023-03-12T04:01:47.046Z,96688.16
2023-03-12T04:04:16.071Z,96690.94
2023-03-12T04:06:44.149Z,96695.88
2023-03-12T04:09:12.634Z,96697.16
2023-03-12T04:11:41.839Z,96702.00
2023-03-12T04:14:12.235Z,96695.88
2023-03-12T04:16:43.466Z,96704.63
2023-03-12T04:19:13.794Z,96699.78
2023-03-12T04:21:41.925Z,96703.66
2023-03-12T04:24:15.637Z,96703.91
2023-03-12T04:26:45.313Z,96705.66
2023-03-12T04:29:14.979Z,96702.94
2023-03-12T04:31:43.556Z,96700.38
2023-03-12T04:34:14.608Z,96711.72
2023-03-12T04:36:45.303Z,96709.22
2023-03-12T04:39:14.837Z,96713.31
2023-03-12T04:41:43.103Z,96709.19
2023-03-12T04:44:15.844Z,96718.34
2023-03-12T04:46:44.809Z,96713.38
2023-03-12T04:49:18.373Z,96716.44
2023-03-12T04:51:47.462Z,96720.84
2023-03-12T04:54:15.713Z,96725.19
2023-03-12T04:56:44.987Z,96724.13
2023-03-12T04:59:13.197Z,96729.25
2023-03-12T05:01:42.773Z,96727.66
2023-03-12T05:04:19.033Z,96733.88
2023-03-12T05:06:47.644Z,96734.63
2023-03-12T05:09:15.707Z,96743.78
2023-03-12T05:11:44.821Z,96741.47
2023-03-12T05:14:16.751Z,96745.03
2023-03-12T05:16:46.655Z,96742.72
2023-03-12T05:19:15.133Z,96744.22
2023-03-12T05:21:45.892Z,96749.94
2023-03-12T05:24:14.117Z,96750.72
2023-03-12T05:26:42.619Z,96753.38
2023-03-12T05:29:19.700Z,96748.31
2023-03-12T05:31:48.337Z,96747.81
2023-03-12T05:34:16.608Z,96749.03
2023-03-12T05:36:48.180Z,96754.16
2023-03-12T05:39:21.203Z,96757.16
2023-03-12T05:41:49.725Z,96760.94
2023-03-12T05:44:21.644Z,96759.88
2023-03-12T05:46:57.746Z,96760.03
2023-03-12T05:49:27.915Z,96755.53
2023-03-12T05:51:59.322Z,96766.50
2023-03-12T05:54:28.027Z,96766.41
2023-03-12T05:56:56.700Z,96758.53
2023-03-12T05:59:26.597Z,96759.75
2023-03-12T06:01:56.178Z,96762.97
2023-03-12T06:04:24.498Z,96768.50
2023-03-12T06:06:54.226Z,96764.56
2023-03-12T06:09:24.367Z,96764.84
2023-03-12T06:11:54.062Z,96757.63
2023-03-12T06:14:22.688Z,96761.78
2023-03-12T06:16:51.464Z,96757.44
2023-03-12T06:19:20.275Z,96760.78
2023-03-12T06:21:50.601Z,96763.19
2023-03-12T06:24:19.034Z,96760.28
2023-03-12T06:26:57.037Z,96759.09
2023-03-12T06:29:25.326Z,96758.88
2023-03-12T06:31:53.667Z,96761.16
2023-03-12T06:34:21.943Z,96761.78
2023-03-12T06:36:50.270Z,96762.41
2023-03-12T06:39:18.454Z,96762.28
2023-03-12T06:41:46.623Z,96761.34
2023-03-12T06:44:16.335Z,96763.66
2023-03-12T06:46:45.246Z,96766.88
2023-03-12T06:49:13.774Z,96774.25
2023-03-12T06:51:42.274Z,96767.03
2023-03-12T06:54:10.502Z,96767.47
2023-03-12T06:56:39.510Z,96776.19
2023-03-12T06:59:08.151Z,96773.88
2023-03-12T07:01:37.761Z,96775.13
2023-03-12T07:04:05.993Z,96778.75
2023-03-12T07:06:34.065Z,96773.75
2023-03-12T07:09:02.559Z,96777.28
2023-03-12T07:11:30.598Z,96774.94
2023-03-12T07:13:58.790Z,96765.72
2023-03-12T07:16:26.940Z,96777.19
2023-03-12T07:18:56.526Z,96778.91
2023-03-12T07:21:24.586Z,96768.63
2023-03-12T07:23:53.378Z,96766.78
2023-03-12T07:26:22.011Z,96762.22
2023-03-12T07:28:50.241Z,96760.81
2023-03-12T07:31:18.611Z,96768.66
2023-03-12T07:33:47.364Z,96768.81
2023-03-12T07:36:17.942Z,96772.94
2023-03-12T07:38:46.192Z,96768.69
2023-03-12T07:41:14.894Z,96765.09
2023-03-12T07:43:43.656Z,96765.72
2023-03-12T07:46:11.997Z,96770.88
2023-03-12T07:48:42.875Z,96767.69
2023-03-12T07:51:12.255Z,96773.22
2023-03-12T07:53:41.927Z,96764.59
2023-03-12T07:56:10.322Z,96761.78
2023-03-12T07:58:39.416Z,96771.44
2023-03-12T08:01:08.139Z,96765.16
2023-03-12T08:03:36.407Z,96751.09
2023-03-12T08:06:06.401Z,96769.44
2023-03-12T08:08:36.262Z,96762.34
2023-03-12T08:11:07.227Z,96765.44
2023-03-12T08:13:35.512Z,96775.03
2023-03-12T08:16:03.652Z,96767.94
2023-03-12T08:18:32.184Z,96776.25
2023-03-12T08:21:00.484Z,96761.69
2023-03-12T08:23:29.359Z,96762.88
2023-03-12T08:26:00.098Z,96767.38
2023-03-12T08:28:29.812Z,96764.03
2023-03-12T08:31:00.555Z,96775.69
2023-03-12T08:33:29.892Z,96775.25
2023-03-12T08:35:58.309Z,96776.97
2023-03-12T08:38:26.739Z,96774.66
2023-03-12T08:40:59.180Z,96775.47
2023-03-12T08:43:29.517Z,96778.00
2023-03-12T08:45:58.986Z,96777.59
2023-03-12T08:48:27.709Z,96776.47
2023-03-12T08:50:56.770Z,96784.34
2023-03-12T08:53:26.038Z,96784.13
2023-03-12T08:55:54.696Z,96785.31
2023-03-12T08:58:26.626Z,96783.25
2023-03-12T09:00:57.368Z,96789.84
2023-03-12T09:03:26.685Z,96791.16
2023-03-12T09:06:05.089Z,96792.19
2023-03-12T09:08:34.255Z,96796.88
2023-03-12T09:11:03.174Z,96794.38
2023-03-12T09:13:54.306Z,96789.16
2023-03-12T09:16:21.146Z,96767.09
2023-03-12T09:18:49.787Z,96770.25
2023-03-12T09:21:17.949Z,96774.59
2023-03-12T09:23:46.705Z,96778.31
2023-03-12T09:26:15.974Z,96771.84
2023-03-12T09:28:45.033Z,96776.00
2023-03-12T09:31:13.462Z,96767.25
2023-03-12T09:33:43.645Z,96778.41
2023-03-12T09:36:11.974Z,96782.09
2023-03-12T09:38:40.477Z,96778.25
2023-03-12T09:41:19.156Z,96777.88
2023-03-12T09:43:53.841Z,96769.94
2023-03-12T09:46:27.824Z,96773.53
2023-03-12T09:49:00.131Z,96774.00
2023-03-12T09:51:35.272Z,96778.03
2023-03-12T09:54:07.023Z,96777.03
2023-03-12T09:56:35.841Z,96774.09
2023-03-12T09:59:05.233Z,96771.63
2023-03-12T10:01:38.684Z,96759.44
2023-03-12T10:04:58.426Z,96756.75
2023-03-12T10:07:34.810Z,96754.41
2023-03-12T10:10:21.718Z,96759.22
2023-03-12T10:13:05.505Z,96749.19
2023-03-12T10:15:45.988Z,96751.81
2023-03-12T10:18:29.074Z,96750.03
2023-03-12T10:21:11.729Z,96753.63
2023-03-12T10:23:51.374Z,96741.91
2023-03-12T10:26:25.500Z,96737.56
2023-03-12T10:28:59.484Z,96748.06
2023-03-12T10:31:31.979Z,96742.72
2023-03-12T10:34:05.321Z,96738.22
2023-03-12T10:36:40.162Z,96738.25
2023-03-12T10:39:15.824Z,96743.03
2023-03-12T10:41:45.790Z,96737.88
2023-03-12T10:44:21.204Z,96740.25
2023-03-12T10:47:09.388Z,96740.66
2023-03-12T10:49:38.962Z,96735.63
2023-03-12T10:52:17.300Z,96753.75
2023-03-12T10:54:47.479Z,96745.28
2023-03-12T10:57:17.355Z,96735.88
2023-03-12T10:59:48.007Z,96742.00
2023-03-12T11:02:33.472Z,96731.16
2023-03-12T11:05:04.962Z,96726.69
2023-03-12T11:07:36.351Z,96725.50
2023-03-12T11:10:15.422Z,96731.16
2023-03-12T11:12:57.086Z,96723.88
2023-03-12T11:15:28.216Z,96726.13
2023-03-12T11:18:20.799Z,96735.19
2023-03-12T11:20:50.236Z,96726.19
2023-03-12T11:23:23.660Z,96722.50
2023-03-12T11:25:54.309Z,96710.16
2023-03-12T11:28:26.366Z,96716.06
2023-03-12T11:30:55.500Z,96709.56
2023-03-12T11:33:23.941Z,96710.63
2023-03-12T11:36:04.441Z,96711.13
2023-03-12T11:38:40.820Z,96709.00
2023-03-12T11:41:28.308Z,96700.38
2023-03-12T11:44:14.229Z,96702.19
2023-03-12T11:46:51.282Z,96702.19
2023-03-12T11:49:33.027Z,96699.72
2023-03-12T11:52:05.580Z,96692.00
2023-03-12T11:55:09.135Z,96689.50
2023-03-12T11:57:47.926Z,96679.19
2023-03-12T12:00:17.784Z,96696.19
2023-03-12T12:03:20.806Z,96691.06
2023-03-12T12:05:59.270Z,96687.06
2023-03-12T12:08:46.569Z,96692.72
2023-03-12T12:11:21.720Z,96688.81
2023-03-12T12:14:01.187Z,96686.84
2023-03-12T12:16:59.964Z,96685.28
2023-03-12T12:19:41.227Z,96673.09
2023-03-12T12:22:24.604Z,96657.50
2023-03-12T12:25:21.479Z,96658.75
2023-03-12T12:28:00.762Z,96655.47
2023-03-12T12:30:48.877Z,96643.91
2023-03-12T12:33:31.551Z,96653.72
2023-03-12T12:36:01.237Z,96637.59
2023-03-12T12:38:35.695Z,96630.91
2023-03-12T12:41:11.184Z,96611.84
2023-03-12T12:43:42.476Z,96613.38
2023-03-12T12:46:14.883Z,96608.00
2023-03-12T12:48:45.450Z,96604.47
2023-03-12T12:51:16.527Z,96614.19
2023-03-12T12:53:51.175Z,96608.88
2023-03-12T12:56:26.894Z,96609.91
2023-03-12T12:59:27.689Z,96605.72
2023-03-12T13:01:58.174Z,96600.78
2023-03-12T13:04:29.717Z,96595.59
2023-03-12T13:07:02.539Z,96592.91
2023-03-12T13:09:40.105Z,96588.63
2023-03-12T13:12:14.234Z,96591.88
2023-03-12T13:14:45.335Z,96582.41
2023-03-12T13:17:35.062Z,96600.81
2023-03-12T13:20:20.796Z,96601.19
2023-03-12T13:23:06.589Z,96605.63
2023-03-12T13:25:49.475Z,96596.75
2023-03-12T13:28:32.802Z,96600.06
2023-03-12T13:31:03.171Z,96592.63
2023-03-12T13:33:46.350Z,96583.56
2023-03-12T13:36:25.283Z,96592.84
2023-03-12T13:38:56.602Z,96589.56
2023-03-12T13:41:39.814Z,96588.88
2023-03-12T13:44:37.978Z,96595.81
2023-03-12T13:47:23.312Z,96588.34
2023-03-12T13:49:56.225Z,96583.94
2023-03-12T13:52:27.377Z,96581.09
2023-03-12T13:55:02.042Z,96568.72
2023-03-12T13:57:38.993Z,96580.34
2023-03-12T14:00:16.451Z,96573.09
2023-03-12T14:02:51.355Z,96580.03
2023-03-12T14:05:21.823Z,96566.75
2023-03-12T14:08:12.126Z,96573.16
2023-03-12T14:10:57.903Z,96566.63
2023-03-12T14:13:40.080Z,96562.50
2023-03-12T14:16:17.308Z,96579.13
2023-03-12T14:18:48.460Z,96574.47
2023-03-12T14:21:18.218Z,96575.84
2023-03-12T14:23:52.192Z,96574.47
2023-03-12T14:26:25.353Z,96575.63
2023-03-12T14:29:01.550Z,96572.44
2023-03-12T14:31:32.562Z,96574.28
2023-03-12T14:34:08.466Z,96564.59
2023-03-12T14:36:40.590Z,96567.78
2023-03-12T14:39:20.919Z,96572.53
2023-03-12T14:41:54.958Z,96567.75
2023-03-12T14:44:25.821Z,96562.94
2023-03-12T14:46:58.061Z,96554.38
2023-03-12T14:49:28.505Z,96552.53
2023-03-12T14:51:57.210Z,96534.25
2023-03-12T14:54:27.519Z,96535.91
2023-03-12T14:56:55.681Z,96516.22
2023-03-12T14:59:27.890Z,96510.47
2023-03-12T15:02:01.781Z,96514.28
2023-03-12T15:04:34.692Z,96506.25
2023-03-12T15:07:06.548Z,96497.16
2023-03-12T15:09:37.177Z,96487.19
2023-03-12T15:12:07.918Z,96487.97
2023-03-12T15:14:43.170Z,96495.00
2023-03-12T15:17:17.172Z,96489.03
2023-03-12T15:19:47.879Z,96498.81
2023-03-12T15:22:18.593Z,96494.59
2023-03-12T15:24:46.809Z,96486.84
2023-03-12T15:27:23.687Z,96482.72
2023-03-12T15:29:53.271Z,96490.66
2023-03-12T15:32:25.064Z,96484.38
2023-03-12T15:34:59.086Z,96477.56
2023-03-12T15:37:32.800Z,96478.41
2023-03-12T15:40:06.222Z,96475.53
2023-03-12T15:42:40.420Z,96475.94
2023-03-12T15:45:19.553Z,96465.22
2023-03-12T15:47:48.654Z,96469.66
2023-03-12T15:50:22.897Z,96472.84
2023-03-12T15:53:02.149Z,96467.88
2023-03-12T15:55:31.573Z,96451.81
2023-03-12T15:58:00.904Z,96454.88
2023-03-12T16:00:30.796Z,96471.31
2023-03-12T16:03:01.222Z,96475.28
2023-03-12T16:05:34.481Z,96468.38
2023-03-12T16:08:04.240Z,96485.31
2023-03-12T16:10:38.745Z,96465.84
2023-03-12T16:13:07.472Z,96456.88
2023-03-12T16:15:39.300Z,96451.44
2023-03-12T16:18:13.788Z,96450.50
2023-03-12T16:20:43.896Z,96450.50
2023-03-12T16:23:12.688Z,96452.97
2023-03-12T16:25:43.382Z,96450.91
2023-03-12T16:28:14.580Z,96455.19
2023-03-12T16:30:42.780Z,96460.59
2023-03-12T16:33:16.562Z,96461.59
2023-03-12T16:35:46.287Z,96454.72
2023-03-12T16:38:14.794Z,96459.13
2023-03-12T16:40:46.120Z,96444.53
2023-03-12T16:43:18.273Z,96449.59
2023-03-12T16:45:48.725Z,96449.78
2023-03-12T16:48:19.243Z,96440.22
2023-03-12T16:50:51.320Z,96437.66
2023-03-12T16:53:20.347Z,96440.22
2023-03-12T16:55:52.049Z,96444.53
2023-03-12T16:58:21.951Z,96446.59
2023-03-12T17:00:51.004Z,96455.22
2023-03-12T17:03:23.481Z,96469.00
2023-03-12T17:05:53.501Z,96474.13
2023-03-12T17:08:21.582Z,96464.66
2023-03-12T17:10:49.792Z,96474.78
2023-03-12T17:13:22.780Z,96482.25
2023-03-12T17:15:51.756Z,96485.88
2023-03-12T17:18:20.937Z,96491.19
2023-03-12T17:20:51.849Z,96488.16
2023-03-12T17:23:22.762Z,96477.97
2023-03-12T17:25:50.702Z,96476.63
2023-03-12T17:28:18.778Z,96469.84
2023-03-12T17:30:47.718Z,96469.84
2023-03-12T17:33:18.405Z,96464.22
2023-03-12T17:35:46.787Z,96466.88
2023-03-12T17:38:15.627Z,96460.00
2023-03-12T17:40:45.902Z,96451.47
2023-03-12T17:43:14.015Z,96464.06
2023-03-12T17:45:42.311Z,96473.41
2023-03-12T17:48:10.361Z,96475.81
2023-03-12T17:50:38.711Z,96469.44
2023-03-12T17:53:06.972Z,96479.53
2023-03-12T17:55:36.226Z,96482.84
2023-03-12T17:58:06.255Z,96482.19
2023-03-12T18:00:34.479Z,96479.53
2023-03-12T18:03:03.530Z,96472.28
2023-03-12T18:05:31.731Z,96468.72
2023-03-12T18:07:59.975Z,96473.94
2023-03-12T18:10:28.647Z,96476.13
2023-03-12T18:12:57.130Z,96470.88
2023-03-12T18:15:26.644Z,96474.38
2023-03-12T18:17:56.787Z,96462.06
2023-03-12T18:20:36.240Z,96471.94
2023-03-12T18:23:06.171Z,96478.56
2023-03-12T18:25:34.217Z,96486.56
2023-03-12T18:28:02.864Z,96495.09
2023-03-12T18:30:32.390Z,96492.53
2023-03-12T18:33:00.938Z,96482.97
2023-03-12T18:35:30.557Z,96489.03
2023-03-12T18:37:59.533Z,96479.16
2023-03-12T18:40:29.115Z,96484.19
2023-03-12T18:42:58.884Z,96471.53
2023-03-12T18:45:28.624Z,96475.09
2023-03-12T18:47:58.496Z,96468.03
2023-03-12T18:50:26.524Z,96472.16
2023-03-12T18:52:54.651Z,96471.94
2023-03-12T18:55:23.002Z,96470.75
2023-03-12T18:57:51.009Z,96474.47
2023-03-12T19:00:20.206Z,96476.13
2023-03-12T19:02:48.801Z,96481.41
2023-03-12T19:05:18.757Z,96474.25
2023-03-12T19:07:47.386Z,96481.31
2023-03-12T19:10:16.370Z,96475.44
2023-03-12T19:12:53.912Z,96477.19
2023-03-12T19:15:24.113Z,96489.34
2023-03-12T19:17:52.870Z,96479.75
2023-03-12T19:20:22.672Z,96479.06
2023-03-12T19:22:50.763Z,96475.03
2023-03-12T19:25:19.989Z,96475.41
2023-03-12T19:27:48.381Z,96482.41
2023-03-12T19:30:17.545Z,96478.19
2023-03-12T19:32:45.568Z,96487.56
2023-03-12T19:35:15.793Z,96489.09
2023-03-12T19:37:45.398Z,96490.22
2023-03-12T19:40:14.835Z,96489.41
2023-03-12T19:42:43.129Z,96496.91
2023-03-12T19:45:12.996Z,96491.66
2023-03-12T19:47:41.304Z,96491.66
2023-03-12T19:50:11.565Z,96502.78
2023-03-12T19:52:40.216Z,96500.84
2023-03-12T19:55:12.114Z,96499.91
2023-03-12T19:57:40.758Z,96493.84
2023-03-12T20:00:12.230Z,96488.31
2023-03-12T20:02:41.538Z,96488.22
2023-03-12T20:05:11.183Z,96489.03
2023-03-12T20:07:39.941Z,96495.00
2023-03-12T20:10:12.963Z,96499.16
2023-03-12T20:12:41.540Z,96496.56
2023-03-12T20:15:10.049Z,96496.75
2023-03-12T20:17:38.205Z,96498.22
2023-03-12T20:20:09.016Z,96502.16
2023-03-12T20:22:37.402Z,96513.38
2023-03-12T20:25:06.626Z,96510.59
2023-03-12T20:27:36.644Z,96510.59
2023-03-12T20:30:07.220Z,96520.69
2023-03-12T20:32:35.586Z,96506.91
2023-03-12T20:35:04.437Z,96506.31
2023-03-12T20:37:32.647Z,96501.56
2023-03-12T20:40:00.783Z,96511.78
2023-03-12T20:42:29.055Z,96504.69
2023-03-12T20:44:58.888Z,96502.81
2023-03-12T20:47:27.092Z,96495.81
2023-03-12T20:49:55.329Z,96498.22
2023-03-12T20:52:23.324Z,96507.28
2023-03-12T20:54:51.637Z,96495.44
2023-03-12T20:57:22.180Z,96500.41
2023-03-12T20:59:50.449Z,96493.72
2023-03-12T21:02:20.397Z,96503.59
2023-03-12T21:04:49.468Z,96497.53
2023-03-12T21:07:17.610Z,96501.56
2023-03-12T21:09:45.693Z,96499.19
2023-03-12T21:12:14.261Z,96503.44
2023-03-12T21:14:43.247Z,96506.84
2023-03-12T21:17:13.766Z,96499.22
2023-03-12T21:19:43.980Z,96504.69
2023-03-12T21:22:12.168Z,96511.69
2023-03-12T21:24:40.498Z,96511.38
2023-03-12T21:27:11.429Z,96505.28
2023-03-12T21:29:39.584Z,96501.78
2023-03-12T21:32:07.751Z,96510.56
2023-03-12T21:34:36.859Z,96504.50
2023-03-12T21:37:06.655Z,96509.31
2023-03-12T21:39:35.806Z,96511.88
2023-03-12T21:42:04.109Z,96507.47
2023-03-12T21:44:32.168Z,96507.47
2023-03-12T21:47:00.196Z,96516.56
2023-03-12T21:49:28.278Z,96511.59
2023-03-12T21:51:57.583Z,96519.22
2023-03-12T21:54:32.845Z,96509.22
2023-03-12T21:57:02.998Z,96508.00
2023-03-12T21:59:31.990Z,96502.84
2023-03-12T22:02:00.396Z,96488.19
2023-03-12T22:04:29.453Z,96501.81
2023-03-12T22:06:57.655Z,96507.88
2023-03-12T22:09:27.501Z,96493.97
2023-03-12T22:11:55.792Z,96487.75
2023-03-12T22:14:24.274Z,96483.03
2023-03-12T22:16:52.241Z,96472.81
2023-03-12T22:19:21.737Z,96482.09
2023-03-12T22:21:50.472Z,96476.50
2023-03-12T22:24:18.532Z,96471.97
2023-03-12T22:26:48.314Z,96466.81
2023-03-12T22:29:16.566Z,96471.97
2023-03-12T22:31:44.681Z,96472.50
2023-03-12T22:34:12.978Z,96470.94
2023-03-12T22:36:41.188Z,96462.38
2023-03-12T22:39:09.216Z,96452.88
2023-03-12T22:41:37.278Z,96450.94
2023-03-12T22:44:09.089Z,96448.84
2023-03-12T22:46:37.834Z,96446.16
2023-03-12T22:49:06.005Z,96455.94
2023-03-12T22:51:34.923Z,96449.03
2023-03-12T22:54:02.988Z,96441.72
2023-03-12T22:56:31.339Z,96443.56
2023-03-12T22:58:59.551Z,96451.75
2023-03-12T23:01:28.944Z,96450.78
2023-03-12T23:03:57.064Z,96442.25
2023-03-12T23:06:27.768Z,96447.06
2023-03-12T23:08:55.869Z,96436.13
2023-03-12T23:11:26.506Z,96436.31
2023-03-12T23:13:56.986Z,96434.09
2023-03-12T23:16:26.859Z,96438.81
2023-03-12T23:18:57.157Z,96442.34
2023-03-12T23:21:26.172Z,96447.41
2023-03-12T23:23:54.942Z,96451.28
2023-03-12T23:26:26.709Z,96431.47
2023-03-12T23:28:55.416Z,96445.06
2023-03-12T23:31:23.640Z,96439.91
2023-03-12T23:33:52.178Z,96434.53
2023-03-12T23:36:23.617Z,96432.88
2023-03-12T23:38:54.173Z,96442.59
2023-03-12T23:41:24.251Z,96437.69
2023-03-12T23:43:52.614Z,96438.50
2023-03-12T23:46:46.041Z,96439.44
2023-03-12T23:49:14.401Z,96448.59
2023-03-12T23:51:43.942Z,96437.94
2023-03-12T23:54:12.311Z,96444.75
2023-03-12T23:56:41.917Z,96443.09
2023-03-12T23:59:11.227Z,96446.72
